createdAt,value
2023-02-12T00:27:25.950Z,62.42
2023-02-12T00:57:30.156Z,52.97
2023-02-12T01:27:34.664Z,63.75
2023-02-12T01:57:40.495Z,58.28
2023-02-12T02:27:51.522Z,59.92
2023-02-12T02:57:58.490Z,56.90
2023-02-12T03:28:05.982Z,51.80
2023-02-12T03:58:11.947Z,49.50
2023-02-12T04:28:24.491Z,43.78
2023-02-12T04:58:28.556Z,41.25
2023-02-12T05:28:32.721Z,57.13
2023-02-12T05:58:36.818Z,56.72
2023-02-12T06:28:41.544Z,45.58
2023-02-12T06:58:47.356Z,54.25
2023-02-12T07:28:51.960Z,52.00
2023-02-12T07:58:56.779Z,77.28
2023-02-12T08:29:03.245Z,73.57
2023-02-12T08:59:08.475Z,69.50
2023-02-12T09:29:12.528Z,64.35
2023-02-12T09:59:21.894Z,65.07
2023-02-12T10:29:29.566Z,53.10
2023-02-12T10:59:35.007Z,41.17
2023-02-12T11:29:40.369Z,29.98
2023-02-12T11:59:47.794Z,16.50
2023-02-12T12:29:54.460Z,28.23
2023-02-12T13:00:07.230Z,24.77
2023-02-12T13:30:20.045Z,15.32
2023-02-12T14:01:01.154Z,10.90
2023-02-12T14:46:55.414Z,9.15
2023-02-12T15:17:03.512Z,13.68
2023-02-12T15:47:14.599Z,19.20
2023-02-12T16:17:30.237Z,18.15
2023-02-12T16:47:34.295Z,17.02
2023-02-12T17:17:38.340Z,14.40
2023-02-12T17:47:44.955Z,12.45
2023-02-12T18:17:49.774Z,14.65
2023-02-12T18:47:53.772Z,16.40
2023-02-12T19:17:57.949Z,17.02
2023-02-12T19:48:02.048Z,24.58
2023-02-12T20:18:07.283Z,22.75
2023-02-12T20:48:12.363Z,19.15
2023-02-12T21:18:17.269Z,16.20
2023-02-12T21:48:21.376Z,17.65
2023-02-12T22:18:25.509Z,18.75
2023-02-12T22:48:30.450Z,18.67
2023-02-12T23:18:34.703Z,22.33
2023-02-12T23:48:38.815Z,20.98
